Flight Track Log - Related Links

Times and Time Zones

All times are in EDT time to prevent confusion due to time zone crossing. See the SWA16 flight status page for this flight to view local times or setup timezone preferences in your user account.

Time Position Orientation Groundspeed Altitude Reporting Facility
EDT Latitude Longitude Course Direction KTS MPH feet Rate Location/Type
Wed 06:29:43 PM 33.9450 -118.4514 59° Northeast 154 177 1,400  Level Los Angeles Center
Wed 06:30:45 PM 33.9397 -118.5183 265° West 203 234 3,400 2,400 Climbing Los Angeles Center
Wed 06:31:48 PM 33.8978 -118.5386 202° Southwest 229 264 6,400 2,928 Climbing Los Angeles Center
Wed 06:32:50 PM 33.9186 -118.4658 71° East 246 283 9,500 2,323 Climbing Los Angeles Center
Wed 06:33:52 PM 33.9547 -118.3967 58° Northeast 269 310 11,200 1,935 Climbing Los Angeles Center
Wed 06:34:54 PM 34.0033 -118.3089 56° Northeast 309 356 13,500 2,177 Climbing Los Angeles Center
Wed 06:35:00 PM 34.2331 -117.8672 59° Northeast  Level FlightAware Approximate
Wed 06:35:56 PM 34.0611 -118.2067 56° Northeast 362 417 15,700  Level Los Angeles Center
Wed 06:36:58 PM 34.1342 -118.0778 56° Northeast 384 442 17,200 2,081 Climbing Los Angeles Center
Wed 06:38:00 PM 34.1986 -117.9650 55° Northeast 404 465 20,000 2,516 Climbing Los Angeles Center
Wed 06:39:02 PM 34.2628 -117.8494 56° Northeast 411 473 22,400 1,440 Climbing Los Angeles Center
Wed 06:40:05 PM 34.3286 -117.7311 56° Northeast 422 486 23,000 1,344 Climbing Los Angeles Center
Wed 06:41:07 PM 34.3994 -117.6050 56° Northeast 428 493 25,200 1,887 Climbing Los Angeles Center
Wed 06:42:09 PM 34.4656 -117.4822 57° Northeast 433 498 26,900 1,597 Climbing Los Angeles Center
Wed 06:43:11 PM 34.5358 -117.3561 56° Northeast 449 517 28,500 1,645 Climbing Los Angeles Center
Wed 06:44:13 PM 34.6211 -117.2008 56° Northeast 462 532 30,300 1,839 Climbing Los Angeles Center
Wed 06:45:15 PM 34.6933 -117.0697 56° Northeast 469 540 32,300 1,839 Climbing Los Angeles Center
Wed 06:46:17 PM 34.7633 -116.9411 56° Northeast 462 532 34,100 1,728 Climbing Los Angeles Center
Wed 06:47:20 PM 34.8317 -116.8156 56° Northeast 450 518 35,900 1,392 Climbing Los Angeles Center
Wed 06:48:22 PM 34.8992 -116.6906 57° Northeast 444 511 37,000 532 Climbing Los Angeles Center
Wed 06:49:24 PM 34.9847 -116.5422 55° Northeast 448 516 37,000 242 Level Los Angeles Center
Wed 06:50:26 PM 35.0731 -116.4350 45° Northeast 448 516 37,500 576 Climbing Los Angeles Center
Wed 06:51:29 PM 35.1611 -116.3267 45° Northeast 449 517 38,200 720 Climbing Los Angeles Center
Wed 06:52:31 PM 35.2519 -116.2167 45° Northeast 459 528 39,000 387 Climbing Los Angeles Center
Wed 06:53:33 PM 35.3350 -116.1050 48° Northeast 451 519 39,000  Level Los Angeles Center
Wed 06:54:35 PM 35.4225 -115.9958 45° Northeast 449 517 39,000  Level Los Angeles Center
Wed 06:55:37 PM 35.4986 -115.8375 59° Northeast 443 510 39,000  Level Los Angeles Center
Wed 06:56:39 PM 35.5531 -115.7042 63° Northeast 436 502 39,000  Level Los Angeles Center
Wed 06:57:41 PM 35.6078 -115.5672 64° Northeast 443 510 39,000  Level Los Angeles Center
Wed 06:58:43 PM 35.6625 -115.4303 64° Northeast 447 514 39,000  Level Los Angeles Center
Wed 06:59:45 PM 35.7167 -115.2942 64° Northeast 447 514 39,000  Level Los Angeles Center
Wed 07:00:47 PM 35.7817 -115.1303 64° Northeast 448 516 39,000  Level Los Angeles Center
Wed 07:01:50 PM 35.8356 -114.9942 64° Northeast 447 514 39,000  Level Los Angeles Center
Wed 07:02:52 PM 35.8897 -114.8567 64° Northeast 447 514 39,000  Level Los Angeles Center
Wed 07:03:53 PM 35.9428 -114.7206 64° Northeast 445 512 39,000  Level Los Angeles Center
Wed 07:04:55 PM 35.9981 -114.5844 63° Northeast 445 512 39,000  Level Los Angeles Center
Wed 07:05:57 PM 36.0617 -114.4192 65° Northeast 445 512 39,000  Level Los Angeles Center
Wed 07:06:59 PM 36.1156 -114.2822 64° Northeast 445 512 39,000  Level Los Angeles Center
Wed 07:08:01 PM 36.1692 -114.1439 64° Northeast 447 514 39,000  Level Los Angeles Center
Wed 07:09:03 PM 36.2233 -114.0050 64° Northeast 449 517 39,000  Level Los Angeles Center
Wed 07:10:05 PM 36.2758 -113.8661 65° Northeast 448 516 39,000  Level Los Angeles Center
Wed 07:11:07 PM 36.3303 -113.7272 64° Northeast 448 516 39,000  Level Los Angeles Center
Wed 07:12:09 PM 36.3933 -113.5597 65° Northeast 449 517 39,000  Level Los Angeles Center
Wed 07:13:11 PM 36.4478 -113.4197 64° Northeast 450 518 39,000  Level Los Angeles Center
Wed 07:14:14 PM 36.5022 -113.2717 65° Northeast 450 518 39,000  Level Los Angeles Center
Wed 07:15:16 PM 36.5553 -113.1319 65° Northeast 450 518 39,000  Level Los Angeles Center
Wed 07:16:18 PM 36.6072 -112.9914 65° Northeast 449 517 39,000  Level Los Angeles Center
Wed 07:17:20 PM 36.6600 -112.8500 65° Northeast 451 519 39,000  Level Los Angeles Center
Wed 07:18:22 PM 36.7125 -112.7089 65° Northeast 452 520 39,000  Level Los Angeles Center
Wed 07:19:24 PM 36.7747 -112.5400 65° Northeast 450 518 39,000  Level Los Angeles Center
Wed 07:20:26 PM 36.8275 -112.3972 65° Northeast 454 522 39,000  Level Los Angeles Center
Wed 07:21:28 PM 36.8792 -112.2561 65° Northeast 450 518 39,000  Level Los Angeles Center
Wed 07:22:30 PM 36.9317 -112.1136 65° Northeast 453 521 39,000  Level Los Angeles Center
Wed 07:23:32 PM 36.9831 -111.9706 66° East 454 522 39,000  Level Los Angeles Center
Wed 07:24:34 PM 37.0433 -111.8000 66° East 451 519 39,000  Level Los Angeles Center
Wed 07:25:36 PM 37.0956 -111.6575 65° Northeast 451 519 39,000  Level Los Angeles Center
Wed 07:26:28 PM 37.1383 -111.5411 65° Northeast 454 522 39,000  Level Denver Center
Wed 07:27:30 PM 37.1878 -111.3975 67° East 454 522 39,000  Level Denver Center
Wed 07:28:32 PM 37.2381 -111.2533 66° East 453 521 39,000  Level Denver Center
Wed 07:29:34 PM 37.2997 -111.0794 66° East 455 524 39,000  Level Denver Center
Wed 07:30:36 PM 37.3503 -110.9347 66° East 455 524 39,000  Level Denver Center
Wed 07:31:38 PM 37.4011 -110.7881 66° East 457 526 39,000  Level Denver Center
Wed 07:32:40 PM 37.4508 -110.6419 67° East 457 526 39,000  Level Denver Center
Wed 07:33:42 PM 37.5039 -110.4919 66° East 460 529 39,000  Level Denver Center
Wed 07:34:44 PM 37.5589 -110.3292 67° East 454 522 39,000  Level Denver Center
Wed 07:35:46 PM 37.6069 -110.1875 67° East 457 526 39,000  Level Denver Center
Wed 07:36:48 PM 37.6639 -110.0233 66° East 457 526 39,000  Level Denver Center
Wed 07:37:50 PM 37.7114 -109.8822 67° East 457 526 39,000  Level Denver Center
Wed 07:38:52 PM 37.7672 -109.7175 67° East 457 526 39,000  Level Denver Center
Wed 07:39:54 PM 37.8139 -109.5753 67° East 458 527 39,000  Level Denver Center
Wed 07:40:56 PM 37.8606 -109.4350 67° East 454 522 39,000  Level Denver Center
Wed 07:41:58 PM 37.9142 -109.2706 68° East 451 519 39,000  Level Denver Center
Wed 07:43:12 PM 37.9608 -109.1314 67° East 448 516 39,000  Level Denver Center
Wed 07:44:15 PM 38.0211 -108.9467 67° East 446 513 39,000  Level Denver Center
Wed 07:45:17 PM 38.0681 -108.8047 67° East 443 510 39,000  Level Denver Center
Wed 07:46:19 PM 38.1197 -108.6378 68° East 450 518 39,000  Level Denver Center
Wed 07:47:21 PM 38.1653 -108.4994 67° East 445 512 39,000  Level Denver Center
Wed 07:48:23 PM 38.2172 -108.3375 68° East 444 511 39,000  Level Denver Center
Wed 07:49:25 PM 38.2614 -108.1981 68° East 445 512 39,000  Level Denver Center
Wed 07:50:27 PM 38.3144 -108.0331 68° East 448 516 39,000  Level Denver Center
Wed 07:51:29 PM 38.3583 -107.8922 68° East 448 516 39,000  Level Denver Center
Wed 07:52:31 PM 38.4100 -107.7264 68° East 451 519 39,000 -290 Level Denver Center
Wed 07:53:33 PM 38.4553 -107.5839 68° East 453 521 38,400 -677 Descending Denver Center
Wed 07:54:35 PM 38.5050 -107.4747 60° Northeast 448 516 37,600 -968 Descending Denver Center
Wed 07:55:37 PM 38.5847 -107.2969 60° Northeast 451 519 36,400 -1,065 Descending Denver Center
Wed 07:56:39 PM 38.6497 -107.1522 60° Northeast 458 527 35,400 -912 Descending Denver Center
Wed 07:57:42 PM 38.7119 -107.0097 61° Northeast 459 528 34,500 -912 Descending Denver Center
Wed 07:58:44 PM 38.7756 -106.8667 60° Northeast 464 534 33,500 -1,016 Descending Denver Center
Wed 07:59:46 PM 38.8522 -106.6928 60° Northeast 470 541 32,400 -1,065 Descending Denver Center
Wed 08:00:48 PM 38.9217 -106.5400 60° Northeast 472 543 31,300 -1,016 Descending Denver Center
Wed 08:01:50 PM 38.9847 -106.4042 59° Northeast 465 535 30,300 -1,306 Descending Denver Center
Wed 08:02:52 PM 39.0567 -106.2472 59° Northeast 458 527 28,600 -1,790 Descending Denver Center
Wed 08:03:54 PM 39.1197 -106.1056 60° Northeast 443 510 26,600 -1,355 Descending Denver Center
Wed 08:04:56 PM 39.1747 -105.9814 60° Northeast 401 461 25,800 -2,081 Descending Denver Center
Wed 08:05:58 PM 39.2292 -105.8581 60° Northeast 396 456 22,300 -2,758 Descending Denver Center
Wed 08:07:00 PM 39.2864 -105.7281 60° Northeast 414 476 20,100 -1,645 Descending Denver Center
Wed 08:08:02 PM 39.3400 -105.6064 60° Northeast 397 457 18,900 -1,161 Descending Denver Center
Wed 08:09:04 PM 39.3881 -105.4953 61° Northeast 359 413 17,700 -1,452 Descending Denver Center
Wed 08:10:06 PM 39.4514 -105.3742 56° Northeast 346 398 15,900 -1,548 Descending Denver Center
Wed 08:11:08 PM 39.5033 -105.2758 56° Northeast 334 384 14,500 -1,113 Descending Denver Center
Wed 08:12:10 PM 39.5619 -105.1850 50° Northeast 307 353 13,600 -726 Descending Denver Center
Wed 08:13:12 PM 39.6392 -105.1689 North 280 322 13,000 -677 Descending Denver Center
Wed 08:14:14 PM 39.7200 -105.1517 North 272 313 12,200 -823 Descending Denver Center
Wed 08:15:16 PM 39.7914 -105.1364 North 261 300 11,300 -823 Descending Denver Center
Wed 08:16:18 PM 39.8447 -105.1083 22° Northeast 224 258 10,500 -871 Descending Denver Center
Wed 08:17:20 PM 39.8419 -105.0317 93° East 198 228 9,500 -968 Descending Denver Center
Wed 08:18:22 PM 39.8419 -104.9592 90° East 200 230 8,500 -960 Descending Denver Center
Wed 08:19:25 PM 39.8417 -104.8831 90° East 197 227 7,500 -960 Descending Denver Center
Wed 08:20:27 PM 39.8411 -104.8147 91° East 190 219 6,500 -823 Descending Denver Center
Wed 08:21:29 PM 39.8408 -104.7567 90° East 150 173 5,800 -581 Descending Denver Center
Wed 08:22:31 PM 39.8403 -104.7114 91° East 141 162 5,300 -484 Descending Denver Center
Wed 08:24:00 PM 39.8500 -104.6667 North  Level FlightAware Approximate
Wed 08:31:00 PM 39.8617 -104.6732 North  Level Estimated
Wed 08:32:00 PM 39.8617 -104.6732 North  Level Estimated

Login

Don't have an account? Register now (free) for customized features, flight alerts, and more!